createdAt,value
2019-05-09T00:01:44.620Z,85.10
2019-05-09T00:04:15.852Z,84.96
2019-05-09T00:06:47.114Z,85.39
2019-05-09T00:09:18.316Z,85.45
2019-05-09T00:11:49.586Z,85.65
2019-05-09T00:14:20.815Z,84.86
2019-05-09T00:16:53.109Z,84.82
2019-05-09T00:19:24.396Z,84.47
2019-05-09T00:21:55.677Z,84.45
2019-05-09T00:24:26.898Z,84.96
2019-05-09T00:26:58.166Z,85.27
2019-05-09T00:29:35.464Z,85.15
2019-05-09T00:32:23.929Z,84.97
2019-05-09T00:35:29.318Z,84.40
2019-05-09T00:38:10.332Z,84.68
2019-05-09T00:40:53.072Z,84.82
2019-05-09T00:43:14.516Z,85.41
2019-05-09T00:46:04.532Z,86.06
2019-05-09T00:48:57.636Z,86.54
2019-05-09T00:51:29.076Z,87.01
2019-05-09T00:54:00.193Z,86.83
2019-05-09T00:56:33.147Z,87.14
2019-05-09T00:59:04.467Z,86.84
2019-05-09T01:01:35.895Z,86.03
2019-05-09T01:04:07.401Z,85.56
2019-05-09T01:06:38.631Z,85.68
2019-05-09T01:09:10.046Z,85.92
2019-05-09T01:11:41.287Z,85.99
2019-05-09T01:14:14.188Z,85.59
2019-05-09T01:16:45.532Z,85.55
2019-05-09T01:19:16.584Z,85.92
2019-05-09T01:21:47.839Z,85.87
2019-05-09T01:24:18.931Z,85.29
2019-05-09T01:26:50.071Z,85.29
2019-05-09T01:29:23.031Z,85.33
2019-05-09T01:31:56.245Z,85.41
2019-05-09T01:34:30.525Z,86.00
2019-05-09T01:37:04.972Z,85.52
2019-05-09T01:39:37.735Z,85.51
2019-05-09T01:42:09.169Z,85.25
2019-05-09T01:44:40.301Z,84.35
2019-05-09T01:47:11.424Z,84.02
2019-05-09T01:49:43.155Z,84.51
2019-05-09T01:52:14.517Z,84.01
2019-05-09T01:54:47.273Z,83.77
2019-05-09T01:57:18.438Z,83.91
2019-05-09T01:59:49.738Z,84.34
2019-05-09T02:02:20.977Z,84.82
2019-05-09T02:04:53.322Z,85.13
2019-05-09T02:07:24.555Z,85.03
2019-05-09T02:09:55.691Z,85.19
2019-05-09T02:12:26.941Z,85.74
2019-05-09T02:15:07.208Z,86.23
2019-05-09T02:17:57.754Z,86.88
2019-05-09T02:20:21.173Z,86.39
2019-05-09T02:22:54.240Z,87.00
2019-05-09T02:25:25.287Z,86.74
2019-05-09T02:27:56.485Z,86.88
2019-05-09T02:30:27.678Z,86.74
2019-05-09T02:32:58.916Z,86.22
2019-05-09T02:35:36.219Z,86.20
2019-05-09T02:38:03.002Z,86.18
2019-05-09T02:40:34.164Z,86.09
2019-05-09T02:43:05.496Z,85.41
2019-05-09T02:45:51.912Z,85.71
2019-05-09T02:48:19.507Z,85.83
2019-05-09T02:50:50.673Z,85.76
2019-05-09T02:53:21.807Z,86.12
2019-05-09T02:55:53.014Z,86.59
2019-05-09T02:58:28.245Z,87.10
2019-05-09T03:01:19.063Z,87.21
2019-05-09T03:03:50.500Z,87.65
2019-05-09T03:06:21.684Z,87.74
2019-05-09T03:08:52.812Z,87.85
2019-05-09T03:11:24.044Z,88.04
2019-05-09T03:13:58.332Z,88.23
2019-05-09T03:16:29.340Z,88.22
2019-05-09T03:19:00.849Z,88.50
2019-05-09T03:21:43.102Z,88.60
2019-05-09T03:24:14.256Z,89.28
2019-05-09T03:26:49.391Z,89.38
2019-05-09T03:29:48.588Z,89.70
2019-05-09T03:32:19.417Z,89.71
2019-05-09T03:34:51.033Z,89.93
2019-05-09T03:37:22.144Z,89.62
2019-05-09T03:39:53.300Z,89.66
2019-05-09T03:42:38.128Z,90.00
2019-05-09T03:44:58.088Z,90.02
2019-05-09T03:47:34.977Z,90.27
2019-05-09T03:50:11.201Z,90.26
2019-05-09T03:52:42.307Z,90.26
2019-05-09T03:55:18.318Z,90.47
2019-05-09T03:57:57.942Z,90.24
2019-05-09T04:00:28.934Z,90.39
2019-05-09T04:03:00.197Z,90.50
2019-05-09T04:05:31.439Z,90.63
2019-05-09T04:08:18.645Z,90.58
2019-05-09T04:10:51.657Z,90.62
2019-05-09T04:13:28.344Z,90.76
2019-05-09T04:15:59.857Z,90.85
2019-05-09T04:18:31.057Z,91.04
2019-05-09T04:21:02.601Z,91.07
2019-05-09T04:23:33.813Z,91.18
2019-05-09T04:26:10.368Z,91.55
2019-05-09T04:28:41.582Z,91.64
2019-05-09T04:31:12.738Z,91.54
2019-05-09T04:33:43.970Z,91.65
2019-05-09T04:36:15.189Z,91.55
2019-05-09T04:38:47.229Z,91.83
2019-05-09T04:41:23.886Z,92.11
2019-05-09T04:43:51.496Z,92.16
2019-05-09T04:46:24.392Z,92.05
2019-05-09T04:48:59.562Z,92.03
2019-05-09T04:51:28.441Z,92.13
2019-05-09T04:53:59.663Z,92.10
2019-05-09T04:56:38.036Z,92.17
2019-05-09T04:59:08.719Z,92.36
2019-05-09T05:01:58.665Z,92.26
2019-05-09T05:04:29.939Z,91.80
2019-05-09T05:07:01.140Z,91.22
2019-05-09T05:09:32.304Z,90.91
2019-05-09T05:12:03.468Z,90.36
2019-05-09T05:14:34.678Z,88.65
2019-05-09T05:17:10.598Z,88.53
2019-05-09T05:19:38.762Z,87.19
2019-05-09T05:22:21.710Z,85.15
2019-05-09T05:25:03.483Z,84.21
2019-05-09T05:27:34.626Z,83.50
2019-05-09T05:30:07.524Z,83.85
2019-05-09T05:32:44.593Z,83.26
2019-05-09T05:35:37.426Z,82.37
2019-05-09T05:38:08.665Z,82.69
2019-05-09T05:40:44.993Z,81.96
2019-05-09T05:43:12.904Z,80.81
2019-05-09T05:45:53.339Z,79.52
2019-05-09T05:48:28.072Z,77.49
2019-05-09T05:50:59.264Z,68.23
2019-05-09T05:53:30.398Z,62.92
2019-05-09T05:56:01.627Z,57.45
2019-05-09T05:58:32.839Z,56.22
2019-05-09T06:01:04.721Z,53.59
2019-05-09T06:03:37.679Z,54.72
2019-05-09T06:06:09.101Z,55.27
2019-05-09T06:08:40.220Z,56.17
2019-05-09T06:11:12.356Z,57.66
2019-05-09T06:13:56.194Z,59.12
2019-05-09T06:16:18.266Z,60.42
2019-05-09T06:18:49.352Z,63.15
2019-05-09T06:21:20.710Z,61.68
2019-05-09T06:23:51.951Z,62.88
2019-05-09T06:26:23.223Z,63.83
2019-05-09T06:28:54.460Z,63.30
2019-05-09T06:31:28.296Z,65.73
2019-05-09T06:33:58.689Z,67.07
2019-05-09T06:36:29.826Z,65.72
2019-05-09T06:39:01.098Z,65.79
2019-05-09T06:41:32.365Z,66.47
2019-05-09T06:44:17.011Z,66.37
2019-05-09T06:46:59.438Z,68.38
2019-05-09T06:49:37.650Z,66.36
2019-05-09T06:52:08.893Z,64.65
2019-05-09T06:54:41.694Z,64.17
2019-05-09T06:57:13.120Z,61.19
2019-05-09T06:59:44.322Z,63.42
2019-05-09T07:02:33.709Z,59.73
2019-05-09T07:05:23.708Z,59.03
2019-05-09T07:08:27.359Z,58.80
2019-05-09T07:10:58.947Z,54.75
2019-05-09T07:13:30.203Z,52.92
2019-05-09T07:16:01.362Z,53.14
2019-05-09T07:18:32.533Z,52.66
2019-05-09T07:21:03.755Z,50.51
2019-05-09T07:23:37.118Z,48.31
2019-05-09T07:26:17.695Z,46.23
2019-05-09T07:28:49.397Z,44.76
2019-05-09T07:31:34.029Z,47.38
2019-05-09T07:34:18.513Z,50.82
2019-05-09T07:36:49.765Z,48.90
2019-05-09T07:39:20.946Z,47.59
2019-05-09T07:41:52.306Z,48.49
2019-05-09T07:44:23.542Z,48.89
2019-05-09T07:47:07.489Z,48.89
2019-05-09T07:49:38.958Z,48.31
2019-05-09T07:52:10.632Z,48.76
2019-05-09T07:54:41.938Z,47.62
2019-05-09T07:57:13.156Z,45.80
2019-05-09T07:59:44.430Z,46.72
2019-05-09T08:02:17.637Z,45.23
2019-05-09T08:04:49.042Z,43.46
2019-05-09T08:07:20.549Z,42.98
2019-05-09T08:09:51.834Z,42.77
2019-05-09T08:12:23.053Z,42.03
2019-05-09T08:15:07.365Z,41.79
2019-05-09T08:17:28.608Z,41.55
2019-05-09T08:19:59.975Z,39.91
2019-05-09T08:22:32.475Z,40.95
2019-05-09T08:25:04.050Z,41.76
2019-05-09T08:27:37.576Z,40.45
2019-05-09T08:30:08.699Z,40.49
2019-05-09T08:32:39.939Z,42.14
2019-05-09T08:35:11.385Z,39.12
2019-05-09T08:37:42.646Z,40.84
2019-05-09T08:40:14.302Z,45.85
2019-05-09T08:42:47.910Z,46.58
2019-05-09T08:45:27.533Z,46.38
2019-05-09T08:47:51.342Z,45.33
2019-05-09T08:50:58.244Z,45.54
2019-05-09T08:53:29.670Z,44.50
2019-05-09T08:56:00.930Z,43.06
2019-05-09T08:58:32.164Z,43.94
2019-05-09T09:01:04.582Z,46.45
2019-05-09T09:03:37.747Z,48.98
2019-05-09T09:06:08.859Z,48.40
2019-05-09T09:08:40.066Z,45.45
2019-05-09T09:11:11.389Z,47.01
2019-05-09T09:13:42.615Z,45.64
2019-05-09T09:16:18.841Z,49.05
2019-05-09T09:18:48.113Z,47.23
2019-05-09T09:21:19.583Z,47.57
2019-05-09T09:23:51.012Z,49.82
2019-05-09T09:26:22.374Z,49.06
2019-05-09T09:28:53.605Z,50.39
2019-05-09T09:31:24.938Z,49.16
2019-05-09T09:33:58.315Z,48.48
2019-05-09T09:36:29.127Z,49.09
2019-05-09T09:39:02.944Z,49.19
2019-05-09T09:41:33.196Z,45.45
2019-05-09T09:44:04.545Z,43.15
2019-05-09T09:46:37.456Z,41.64
2019-05-09T09:49:08.900Z,43.85
2019-05-09T09:51:40.158Z,43.30
2019-05-09T09:54:11.650Z,43.56
2019-05-09T09:56:47.871Z,43.83
2019-05-09T09:59:48.341Z,45.35
2019-05-09T10:02:23.504Z,45.46
2019-05-09T10:04:54.773Z,48.86
2019-05-09T10:07:27.974Z,47.60
2019-05-09T10:09:58.821Z,48.16
2019-05-09T10:12:30.030Z,46.00
2019-05-09T10:15:08.557Z,48.23
2019-05-09T10:17:58.278Z,49.18
2019-05-09T10:20:48.332Z,46.79
2019-05-09T10:23:21.426Z,47.87
2019-05-09T10:25:51.645Z,46.56
2019-05-09T10:28:22.954Z,46.26
2019-05-09T10:30:54.198Z,47.30
2019-05-09T10:33:25.422Z,46.21
2019-05-09T10:36:03.122Z,47.71
2019-05-09T10:38:29.533Z,46.51
2019-05-09T10:41:02.024Z,48.39
2019-05-09T10:43:44.106Z,46.79
2019-05-09T10:46:56.714Z,45.35
2019-05-09T10:49:22.349Z,45.41
2019-05-09T10:51:53.571Z,44.63
2019-05-09T10:54:24.790Z,42.60
2019-05-09T10:56:57.982Z,43.35
2019-05-09T10:59:28.918Z,44.31
2019-05-09T11:02:00.146Z,45.08
2019-05-09T11:04:31.369Z,44.00
2019-05-09T11:07:02.625Z,43.61
2019-05-09T11:09:33.861Z,43.19
2019-05-09T11:12:07.704Z,43.68
2019-05-09T11:14:38.039Z,42.37
2019-05-09T11:17:16.157Z,43.59
2019-05-09T11:19:42.079Z,43.06
2019-05-09T11:22:13.220Z,44.02
2019-05-09T11:24:49.795Z,44.20
2019-05-09T11:27:18.661Z,45.61
2019-05-09T11:29:50.053Z,46.43
2019-05-09T11:32:21.277Z,47.36
2019-05-09T11:34:52.525Z,48.37
2019-05-09T11:37:23.798Z,49.35
2019-05-09T11:39:54.995Z,50.41
2019-05-09T11:42:28.317Z,49.04
2019-05-09T11:44:59.028Z,46.30
2019-05-09T11:47:39.501Z,46.62
2019-05-09T11:50:03.123Z,47.03
2019-05-09T11:52:34.379Z,46.04
2019-05-09T11:55:08.006Z,44.94
2019-05-09T11:57:38.801Z,43.79
2019-05-09T12:00:11.231Z,43.96
2019-05-09T12:02:42.425Z,44.01
2019-05-09T12:05:13.630Z,45.59
2019-05-09T12:07:44.830Z,44.57
2019-05-09T12:10:18.568Z,45.81
2019-05-09T12:12:49.170Z,47.03
2019-05-09T12:15:20.428Z,48.43
2019-05-09T12:17:58.459Z,48.38
2019-05-09T12:20:24.497Z,49.28
2019-05-09T12:22:58.185Z,49.61
2019-05-09T12:25:28.580Z,52.02
2019-05-09T12:27:59.821Z,52.44
2019-05-09T12:30:31.070Z,52.05
2019-05-09T12:33:02.325Z,51.95
2019-05-09T12:35:33.563Z,51.92
2019-05-09T12:38:04.719Z,50.43
2019-05-09T12:40:38.714Z,49.89
2019-05-09T12:43:09.240Z,50.13
2019-05-09T12:45:40.523Z,48.17
2019-05-09T12:48:15.507Z,45.38
2019-05-09T12:50:44.705Z,46.36
2019-05-09T12:53:18.683Z,46.00
2019-05-09T12:55:50.386Z,45.24
2019-05-09T12:58:30.755Z,44.35
2019-05-09T13:01:02.363Z,43.96
2019-05-09T13:03:33.621Z,43.70
2019-05-09T13:06:04.793Z,43.30
2019-05-09T13:08:38.329Z,42.64
2019-05-09T13:11:08.843Z,44.17
2019-05-09T13:13:41.350Z,44.59
2019-05-09T13:16:50.753Z,42.67
2019-05-09T13:19:20.981Z,41.65
2019-05-09T13:21:52.195Z,39.55
2019-05-09T13:24:23.475Z,40.19
2019-05-09T13:26:54.801Z,39.97
2019-05-09T13:29:26.061Z,39.53
2019-05-09T13:31:57.800Z,39.42
2019-05-09T13:34:29.077Z,39.04
2019-05-09T13:37:00.456Z,38.58
2019-05-09T13:39:31.697Z,40.43
2019-05-09T13:42:02.855Z,40.26
2019-05-09T13:44:33.980Z,42.48
2019-05-09T13:47:05.204Z,42.19
2019-05-09T13:49:36.394Z,44.90
2019-05-09T13:52:10.220Z,46.02
2019-05-09T13:54:40.484Z,46.48
2019-05-09T13:57:11.679Z,48.46
2019-05-09T13:59:42.872Z,49.43
2019-05-09T14:02:14.068Z,49.43
2019-05-09T14:04:48.368Z,47.71
2019-05-09T14:07:19.277Z,50.08
2019-05-09T14:09:50.735Z,48.75
2019-05-09T14:12:21.974Z,48.99
2019-05-09T14:14:53.148Z,49.29
2019-05-09T14:17:41.821Z,49.97
2019-05-09T14:19:57.315Z,50.94
2019-05-09T14:22:28.501Z,51.73
2019-05-09T14:24:59.993Z,49.82
2019-05-09T14:27:31.287Z,47.90
2019-05-09T14:30:02.515Z,48.06
2019-05-09T14:32:34.905Z,46.96
2019-05-09T14:35:08.541Z,46.48
2019-05-09T14:37:39.792Z,45.97
2019-05-09T14:40:11.263Z,46.19
2019-05-09T14:42:42.421Z,46.15
2019-05-09T14:45:13.785Z,43.58
2019-05-09T14:47:45.033Z,43.71
2019-05-09T14:50:18.065Z,43.02
2019-05-09T14:52:50.451Z,43.71
2019-05-09T14:55:21.979Z,44.29
2019-05-09T14:57:53.174Z,46.33
2019-05-09T15:00:24.349Z,47.73
2019-05-09T15:02:58.004Z,48.28
2019-05-09T15:05:28.629Z,48.78
2019-05-09T15:07:59.851Z,49.73
2019-05-09T15:10:31.138Z,48.21
2019-05-09T15:13:02.379Z,47.28
2019-05-09T15:15:33.580Z,47.10
2019-05-09T15:18:04.833Z,48.08
2019-05-09T15:20:38.057Z,50.07
2019-05-09T15:23:08.917Z,47.32
2019-05-09T15:25:40.108Z,50.65
2019-05-09T15:28:11.364Z,49.89
2019-05-09T15:30:42.667Z,50.39
2019-05-09T15:33:13.808Z,47.76
2019-05-09T15:35:45.079Z,48.28
2019-05-09T15:38:18.126Z,46.53
2019-05-09T15:40:54.469Z,44.56
2019-05-09T15:43:25.966Z,42.99
2019-05-09T15:46:08.372Z,43.61
2019-05-09T15:48:39.754Z,40.09
2019-05-09T15:51:10.888Z,41.49
2019-05-09T15:53:43.335Z,41.36
2019-05-09T15:56:14.446Z,43.71
2019-05-09T15:58:45.692Z,41.99
2019-05-09T16:01:18.378Z,39.85
2019-05-09T16:03:49.863Z,38.43
2019-05-09T16:06:21.107Z,39.25
2019-05-09T16:08:52.246Z,39.17
2019-05-09T16:11:23.487Z,38.09
2019-05-09T16:13:54.721Z,38.17
2019-05-09T16:16:28.418Z,38.93
2019-05-09T16:18:58.714Z,40.48
2019-05-09T16:21:29.910Z,43.07
2019-05-09T16:24:01.249Z,44.72
2019-05-09T16:26:32.469Z,46.64
2019-05-09T16:29:03.771Z,47.37
2019-05-09T16:31:38.416Z,50.66
2019-05-09T16:34:09.592Z,52.50
2019-05-09T16:36:40.905Z,53.24
2019-05-09T16:39:12.270Z,53.96
2019-05-09T16:41:44.001Z,55.96
2019-05-09T16:44:17.981Z,55.45
2019-05-09T16:46:48.569Z,55.39
2019-05-09T16:49:25.892Z,56.09
2019-05-09T16:51:55.514Z,56.07
2019-05-09T16:54:30.674Z,52.88
2019-05-09T16:57:01.834Z,52.72
2019-05-09T16:59:33.061Z,51.43
2019-05-09T17:02:17.897Z,53.20
2019-05-09T17:04:38.654Z,52.35
2019-05-09T17:07:10.049Z,51.43
2019-05-09T17:09:48.360Z,51.89
2019-05-09T17:12:19.166Z,51.02
2019-05-09T17:14:50.289Z,51.88
2019-05-09T17:17:21.567Z,52.37
2019-05-09T17:19:52.783Z,52.33
2019-05-09T17:22:41.367Z,52.55
2019-05-09T17:25:12.743Z,52.29
2019-05-09T17:27:44.079Z,52.35
2019-05-09T17:30:15.572Z,52.91
2019-05-09T17:32:47.498Z,53.52
2019-05-09T17:35:18.990Z,53.63
2019-05-09T17:37:50.130Z,55.87
2019-05-09T17:40:21.277Z,55.61
2019-05-09T17:42:52.601Z,54.21
2019-05-09T17:45:23.770Z,53.63
2019-05-09T17:47:55.005Z,53.95
2019-05-09T17:50:28.425Z,54.29
2019-05-09T17:52:59.075Z,55.09
2019-05-09T17:55:30.233Z,55.78
2019-05-09T17:58:01.474Z,55.71
2019-05-09T18:00:32.752Z,56.76
2019-05-09T18:03:04.527Z,57.78
2019-05-09T18:05:38.662Z,60.54
2019-05-09T18:08:08.687Z,61.72
2019-05-09T18:10:39.946Z,64.42
2019-05-09T18:13:11.174Z,65.66
2019-05-09T18:15:42.323Z,66.56
2019-05-09T18:18:13.580Z,67.22
2019-05-09T18:20:44.945Z,70.12
2019-05-09T18:23:17.674Z,70.91
2019-05-09T18:25:49.526Z,72.51
2019-05-09T18:28:20.977Z,72.99
2019-05-09T18:30:52.243Z,74.00
2019-05-09T18:33:29.168Z,73.93
2019-05-09T18:36:00.369Z,73.97
2019-05-09T18:38:35.339Z,73.69
2019-05-09T18:41:09.994Z,74.58
2019-05-09T18:43:39.880Z,74.95
2019-05-09T18:46:11.086Z,77.02
2019-05-09T18:48:42.353Z,77.27
2019-05-09T18:51:13.527Z,77.91
2019-05-09T18:53:44.765Z,79.53
2019-05-09T18:56:16.055Z,80.23
2019-05-09T18:58:47.324Z,81.32
2019-05-09T19:01:18.586Z,81.96
2019-05-09T19:03:49.808Z,82.50
2019-05-09T19:06:21.060Z,83.10
2019-05-09T19:08:52.268Z,84.15
2019-05-09T19:11:23.576Z,85.42
2019-05-09T19:13:55.825Z,85.89
2019-05-09T19:16:33.277Z,85.82
2019-05-09T19:19:23.140Z,85.71
2019-05-09T19:21:57.533Z,85.85
2019-05-09T19:24:28.775Z,85.73
2019-05-09T19:26:59.939Z,86.21
2019-05-09T19:29:31.030Z,86.61
2019-05-09T19:32:02.304Z,86.63
2019-05-09T19:34:33.502Z,86.60
2019-05-09T19:37:04.725Z,86.28
2019-05-09T19:39:35.977Z,86.06
2019-05-09T19:42:07.163Z,86.12
2019-05-09T19:44:38.288Z,86.05
2019-05-09T19:47:09.544Z,85.83
2019-05-09T19:49:40.807Z,85.62
2019-05-09T19:52:12.259Z,85.17
2019-05-09T19:54:46.201Z,82.95
2019-05-09T19:57:18.260Z,80.99
2019-05-09T19:59:56.519Z,78.84
2019-05-09T20:02:30.850Z,77.53
2019-05-09T20:05:11.604Z,76.76
2019-05-09T20:07:48.462Z,76.37
2019-05-09T20:10:43.493Z,76.41
2019-05-09T20:13:33.638Z,77.67
2019-05-09T20:16:08.057Z,77.20
2019-05-09T20:18:48.842Z,77.86
2019-05-09T20:21:21.482Z,77.37
2019-05-09T20:23:52.805Z,77.90
2019-05-09T20:26:24.089Z,78.07
2019-05-09T20:28:55.381Z,78.87
2019-05-09T20:31:27.922Z,78.54
2019-05-09T20:33:59.201Z,78.58
2019-05-09T20:36:30.422Z,79.11
2019-05-09T20:39:01.869Z,78.80
2019-05-09T20:41:33.295Z,79.15
2019-05-09T20:44:04.827Z,79.52
2019-05-09T20:46:39.221Z,79.49
2019-05-09T20:49:12.411Z,79.82
2019-05-09T20:51:43.836Z,80.12
2019-05-09T20:54:20.992Z,80.60
2019-05-09T20:56:48.328Z,80.97
2019-05-09T20:59:19.724Z,80.91
2019-05-09T21:01:51.685Z,81.34
2019-05-09T21:04:23.184Z,81.71
2019-05-09T21:06:54.560Z,81.80
2019-05-09T21:09:25.930Z,82.10
2019-05-09T21:11:57.350Z,82.08
2019-05-09T21:14:29.046Z,81.70
2019-05-09T21:17:07.292Z,81.33
2019-05-09T21:19:39.792Z,81.59
2019-05-09T21:22:11.147Z,82.04
2019-05-09T21:24:42.599Z,81.91
2019-05-09T21:27:14.076Z,82.15
2019-05-09T21:29:45.596Z,82.24
2019-05-09T21:32:17.051Z,82.06
2019-05-09T21:34:48.469Z,82.45
2019-05-09T21:37:19.710Z,82.55
2019-05-09T21:39:50.960Z,82.17
2019-05-09T21:42:22.168Z,82.43
2019-05-09T21:44:54.209Z,82.77
2019-05-09T21:47:26.394Z,83.23
2019-05-09T21:49:57.813Z,82.94
2019-05-09T21:52:29.105Z,82.84
2019-05-09T21:55:00.280Z,82.17
2019-05-09T21:57:31.542Z,82.53
2019-05-09T22:00:03.199Z,82.17
2019-05-09T22:02:34.645Z,82.94
2019-05-09T22:05:06.469Z,83.31
2019-05-09T22:07:37.662Z,83.72
2019-05-09T22:10:09.454Z,83.91
2019-05-09T22:12:40.655Z,84.55
2019-05-09T22:15:13.154Z,84.31
2019-05-09T22:17:48.072Z,84.85
2019-05-09T22:20:19.574Z,85.44
2019-05-09T22:22:53.692Z,85.68
2019-05-09T22:25:24.979Z,85.06
2019-05-09T22:27:56.823Z,84.86
2019-05-09T22:30:28.089Z,84.84
2019-05-09T22:32:59.381Z,84.67
2019-05-09T22:35:30.657Z,84.03
2019-05-09T22:38:01.886Z,83.90
2019-05-09T22:40:41.808Z,84.54
2019-05-09T22:43:13.228Z,84.22
2019-05-09T22:45:44.886Z,84.52
2019-05-09T22:48:16.957Z,84.11
2019-05-09T22:50:51.621Z,83.89
2019-05-09T22:53:25.845Z,83.48
2019-05-09T22:55:59.705Z,83.50
2019-05-09T22:58:30.900Z,82.92
2019-05-09T23:01:02.831Z,82.75
2019-05-09T23:03:34.077Z,81.76
2019-05-09T23:06:05.323Z,81.52
2019-05-09T23:08:36.596Z,80.32
2019-05-09T23:11:07.952Z,79.82
2019-05-09T23:13:54.296Z,78.82
2019-05-09T23:16:28.530Z,78.91
2019-05-09T23:18:59.973Z,78.62
2019-05-09T23:21:31.321Z,79.37
2019-05-09T23:24:04.988Z,79.45
2019-05-09T23:26:36.044Z,79.35
2019-05-09T23:29:07.303Z,79.67
2019-05-09T23:31:59.977Z,80.04
2019-05-09T23:34:31.239Z,80.38
2019-05-09T23:37:02.483Z,80.62
2019-05-09T23:39:41.423Z,80.02
2019-05-09T23:42:12.761Z,79.11
2019-05-09T23:44:44.070Z,77.43
2019-05-09T23:47:15.408Z,77.41
2019-05-09T23:49:46.593Z,77.71
2019-05-09T23:52:17.875Z,77.30
2019-05-09T23:55:21.348Z,76.88
2019-05-09T23:58:11.284Z,77.15
